Time;durP1;ratioP1;P1;durP2;ratioP2;P2;SDS_P1;SDS_P2;PMS_P1;PMS_P2;Temp;Humidity;BMP_temperature;BMP_pressure;BME280_temperature;BME280_humidity;BME280_pressure;Samples;Min_cycle;Max_cycle;Signal;HPM_P1;HPM_P2
2022/09/06 00:00:55;;;;;;;8.10;7.30;;;18.90;99.90;;;;;;4995357;28;20109;-53
2022/09/06 00:03:21;;;;;;;10.57;7.10;;;18.80;99.90;;;;;;4993632;28;20114;-53
2022/09/06 00:05:47;;;;;;;8.70;7.03;;;18.80;99.90;;;;;;4995629;28;20031;-53
2022/09/06 00:08:13;;;;;;;11.15;6.57;;;18.80;99.90;;;;;;4995584;28;20065;-53
2022/09/06 00:10:41;;;;;;;8.73;7.28;;;18.80;99.90;;;;;;4995115;28;20531;-53
2022/09/06 00:13:08;;;;;;;8.15;7.35;;;18.80;99.90;;;;;;4994605;28;20061;-53
2022/09/06 00:15:35;;;;;;;6.90;6.20;;;18.70;99.90;;;;;;4994870;28;20483;-53
2022/09/06 00:18:03;;;;;;;9.98;7.00;;;18.60;99.90;;;;;;4994780;28;20038;-53
2022/09/06 00:20:30;;;;;;;10.48;6.80;;;18.50;99.90;;;;;;4994800;28;20503;-53
2022/09/06 00:23:01;;;;;;;7.72;7.07;;;18.40;99.90;;;;;;4994592;28;20037;-53
2022/09/06 00:25:28;;;;;;;9.52;6.45;;;18.40;99.90;;;;;;4994411;28;20076;-53
2022/09/06 00:28:01;;;;;;;9.48;7.13;;;18.40;99.90;;;;;;4994315;28;20026;-53
2022/09/06 00:30:28;;;;;;;10.68;7.45;;;18.30;99.90;;;;;;4994389;28;20023;-53
2022/09/06 00:32:54;;;;;;;11.23;7.50;;;18.40;99.90;;;;;;4994548;28;20065;-53
2022/09/06 00:35:22;;;;;;;10.15;6.82;;;18.40;99.90;;;;;;4994712;28;20275;-53
2022/09/06 00:37:47;;;;;;;6.53;6.03;;;18.40;99.90;;;;;;4994483;28;20061;-53
2022/09/06 00:40:13;;;;;;;5.53;4.85;;;18.50;99.90;;;;;;4994322;28;20062;-53
2022/09/06 00:42:39;;;;;;;6.28;5.43;;;18.50;99.90;;;;;;4994198;28;20376;-53
2022/09/06 00:45:06;;;;;;;5.93;5.30;;;18.50;99.90;;;;;;4994495;28;20535;-53
2022/09/06 00:47:35;;;;;;;7.68;4.72;;;18.50;99.90;;;;;;4994292;28;20161;-53
2022/09/06 00:50:02;;;;;;;6.50;4.78;;;18.50;99.90;;;;;;4994407;28;20027;-53
2022/09/06 00:52:29;;;;;;;6.65;5.75;;;18.60;99.90;;;;;;4994555;28;20034;-53
2022/09/06 00:54:55;;;;;;;8.55;5.47;;;18.50;99.90;;;;;;4993513;28;20058;-53
2022/09/06 00:57:25;;;;;;;7.78;6.13;;;18.40;99.90;;;;;;4993113;28;20410;-52
2022/09/06 00:59:52;;;;;;;6.57;5.70;;;18.20;99.90;;;;;;4994550;28;20030;-53
2022/09/06 01:02:18;;;;;;;8.35;6.13;;;18.10;99.90;;;;;;4994155;28;20361;-52
2022/09/06 01:04:47;;;;;;;7.15;5.53;;;18.20;99.90;;;;;;4994424;28;20025;-52
2022/09/06 01:07:20;;;;;;;8.02;5.13;;;18.30;99.90;;;;;;4994309;28;20105;-52
2022/09/06 01:10:29;;;;;;;6.50;5.78;;;18.30;99.90;;;;;;4995018;28;20464;-54
2022/09/06 01:13:19;;;;;;;6.15;5.53;;;18.20;99.90;;;;;;4994349;28;20031;-53
2022/09/06 01:15:51;;;;;;;6.18;4.95;;;18.10;99.90;;;;;;4994305;28;20022;-53
2022/09/06 01:18:32;;;;;;;;;;;17.90;99.90;;;;;;4994699;28;20045;-53
2022/09/06 01:21:26;;;;;;;5.97;5.47;;;17.80;99.90;;;;;;4994236;28;20048;-53
2022/09/06 01:24:10;;;;;;;6.25;5.10;;;17.90;99.90;;;;;;4993578;28;20037;-53
2022/09/06 01:26:51;;;;;;;6.15;5.55;;;17.80;99.90;;;;;;4994664;28;20395;-54
2022/09/06 01:29:32;;;;;;;7.63;5.72;;;17.80;99.90;;;;;;4994440;28;20027;-52
2022/09/06 01:32:09;;;;;;;8.43;5.10;;;17.90;99.90;;;;;;4994669;28;20495;-53
2022/09/06 01:34:40;;;;;;;5.40;5.00;;;18.00;99.90;;;;;;4994276;28;20395;-54
2022/09/06 01:37:16;;;;;;;7.20;5.72;;;17.90;99.90;;;;;;4994260;28;20511;-54
2022/09/06 01:39:42;;;;;;;6.68;5.20;;;17.80;99.90;;;;;;4996083;28;20391;-54
2022/09/06 01:42:18;;;;;;;5.72;5.10;;;17.80;99.90;;;;;;4995293;28;20042;-53
2022/09/06 01:45:05;;;;;;;7.63;5.30;;;17.80;99.90;;;;;;4993789;28;20057;-54
2022/09/06 01:47:42;;;;;;;7.88;5.53;;;17.70;99.90;;;;;;4993042;28;20074;-54
2022/09/06 01:50:53;;;;;;;5.78;5.07;;;17.70;99.90;;;;;;4993749;28;20058;-53
2022/09/06 01:53:31;;;;;;;7.85;5.22;;;17.70;99.90;;;;;;4993478;28;20117;-53
2022/09/06 01:56:35;;;;;;;8.93;5.25;;;17.70;99.90;;;;;;4993207;28;20030;-53
2022/09/06 01:59:23;;;;;;;6.80;5.50;;;17.70;99.90;;;;;;4985338;28;20053;-52
2022/09/06 02:02:06;;;;;;;6.88;6.10;;;17.70;99.90;;;;;;4993059;28;20109;-54
2022/09/06 02:04:48;;;;;;;6.95;5.75;;;17.60;99.90;;;;;;4993535;28;20030;-53
2022/09/06 02:07:22;;;;;;;10.07;6.60;;;17.60;99.90;;;;;;4993181;28;20418;-53
2022/09/06 02:10:11;;;;;;;6.30;5.60;;;17.70;99.90;;;;;;4993589;28;20046;-54
2022/09/06 02:12:42;;;;;;;8.45;5.63;;;17.60;99.90;;;;;;4993621;28;20077;-53
2022/09/06 02:15:14;;;;;;;8.25;5.80;;;17.60;99.90;;;;;;4993175;28;20542;-53
2022/09/06 02:17:59;;;;;;;6.93;6.22;;;17.50;99.90;;;;;;4993267;28;20049;-53
2022/09/06 02:20:30;;;;;;;6.20;5.60;;;17.60;99.90;;;;;;4991956;28;20038;-53
2022/09/06 02:22:58;;;;;;;5.53;5.03;;;17.50;99.90;;;;;;4993122;28;20276;-52
2022/09/06 02:25:28;;;;;;;7.38;4.90;;;17.50;99.90;;;;;;4992726;28;20018;-52
2022/09/06 02:27:54;;;;;;;10.57;5.35;;;17.50;99.90;;;;;;4992825;28;20034;-53
2022/09/06 02:30:20;;;;;;;6.22;4.88;;;17.50;99.90;;;;;;4993582;28;20365;-53
2022/09/06 02:32:54;;;;;;;8.88;4.97;;;17.50;99.90;;;;;;4993018;28;20031;-53
2022/09/06 02:35:20;;;;;;;7.18;5.50;;;17.50;99.90;;;;;;4992866;28;20030;-53
2022/09/06 02:37:46;;;;;;;7.30;5.55;;;17.50;99.90;;;;;;4992408;28;20503;-53
2022/09/06 02:40:11;;;;;;;6.05;5.35;;;17.50;99.90;;;;;;4992968;28;20031;-53
2022/09/06 02:42:38;;;;;;;5.88;5.20;;;17.50;99.90;;;;;;4992840;28;20492;-52
2022/09/06 02:45:04;;;;;;;9.18;5.35;;;17.50;99.90;;;;;;4992836;28;20022;-53
2022/09/06 02:47:30;;;;;;;7.25;5.00;;;17.40;99.90;;;;;;4992733;28;20509;-52
2022/09/06 02:49:55;;;;;;;6.63;5.10;;;17.40;99.90;;;;;;4991218;28;20583;-53
2022/09/06 02:52:21;;;;;;;8.18;5.38;;;17.40;99.90;;;;;;4992209;28;20030;-53
2022/09/06 02:54:46;;;;;;;8.13;5.30;;;17.30;99.90;;;;;;4992617;28;20034;-54
2022/09/06 02:57:12;;;;;;;5.40;4.90;;;17.30;99.90;;;;;;4992487;28;20419;-53
2022/09/06 02:59:38;;;;;;;7.20;5.50;;;17.40;99.90;;;;;;4992695;28;20108;-53
2022/09/06 03:02:04;;;;;;;7.60;5.28;;;17.30;99.90;;;;;;4993089;28;20038;-53
2022/09/06 03:04:30;;;;;;;7.32;5.50;;;17.30;99.90;;;;;;4992402;28;20424;-53
2022/09/06 03:06:56;;;;;;;7.55;5.85;;;17.30;99.90;;;;;;4992496;28;20559;-52
2022/09/06 03:09:21;;;;;;;7.20;5.45;;;17.30;99.90;;;;;;4992797;28;20199;-53
2022/09/06 03:11:47;;;;;;;7.05;5.70;;;17.30;99.90;;;;;;4992444;28;20030;-53
2022/09/06 03:14:15;;;;;;;7.85;5.60;;;17.30;99.90;;;;;;4992604;28;20026;-53
2022/09/06 03:16:42;;;;;;;5.72;5.22;;;17.30;99.90;;;;;;4990949;28;20074;-52
2022/09/06 03:19:07;;;;;;;6.93;5.15;;;17.30;99.90;;;;;;4995513;28;20495;-53
2022/09/06 03:21:33;;;;;;;9.65;5.72;;;17.40;99.90;;;;;;4996453;28;20483;-53
2022/09/06 03:23:58;;;;;;;6.60;5.55;;;17.30;99.90;;;;;;4996368;28;20023;-53
2022/09/06 03:26:24;;;;;;;9.38;6.05;;;17.30;99.90;;;;;;4996510;28;20046;-54
2022/09/06 03:28:50;;;;;;;10.88;6.18;;;17.40;99.90;;;;;;4995854;28;20038;-53
2022/09/06 03:31:16;;;;;;;6.82;5.57;;;17.40;99.90;;;;;;4995743;28;20108;-53
2022/09/06 03:33:41;;;;;;;7.47;6.30;;;17.40;99.90;;;;;;4995577;28;20384;-52
2022/09/06 03:36:07;;;;;;;6.90;6.20;;;17.40;99.90;;;;;;4995601;28;20452;-53
2022/09/06 03:38:33;;;;;;;7.63;6.45;;;17.40;99.90;;;;;;4995589;28;20081;-53
2022/09/06 03:40:59;;;;;;;6.75;6.10;;;17.40;99.90;;;;;;4995671;28;20034;-53
2022/09/06 03:43:26;;;;;;;7.53;6.40;;;17.30;99.90;;;;;;4995302;28;20034;-52
2022/09/06 03:45:55;;;;;;;7.70;6.90;;;17.30;99.90;;;;;;4995725;28;20391;-53
2022/09/06 03:48:24;;;;;;;8.70;7.30;;;17.30;99.90;;;;;;4995736;28;20067;-53
2022/09/06 03:50:53;;;;;;;11.40;7.40;;;17.30;99.90;;;;;;4994861;28;20030;-52
2022/09/06 03:53:19;;;;;;;7.95;7.07;;;17.30;99.90;;;;;;4995275;28;20105;-52
2022/09/06 03:55:49;;;;;;;10.82;7.43;;;17.20;99.90;;;;;;4995485;28;20088;-53
2022/09/06 03:58:16;;;;;;;11.55;7.28;;;17.20;99.90;;;;;;4995979;28;20105;-53
2022/09/06 04:00:42;;;;;;;9.75;7.53;;;17.30;99.90;;;;;;4995718;28;20097;-53
2022/09/06 04:03:08;;;;;;;9.32;7.65;;;17.30;99.90;;;;;;4994268;28;20157;-53
2022/09/06 04:05:34;;;;;;;8.77;7.50;;;17.30;99.90;;;;;;4995326;28;20026;-54
2022/09/06 04:07:59;;;;;;;10.15;8.57;;;17.30;99.90;;;;;;4994189;28;20056;-53
2022/09/06 04:10:25;;;;;;;12.50;7.90;;;17.40;99.90;;;;;;4992593;28;20468;-54
2022/09/06 04:12:51;;;;;;;9.93;8.23;;;17.40;99.90;;;;;;4994735;28;20025;-53
2022/09/06 04:15:16;;;;;;;14.23;8.48;;;17.30;99.90;;;;;;4995104;28;20490;-53
2022/09/06 04:17:46;;;;;;;10.65;8.32;;;17.40;99.90;;;;;;4994970;28;20031;-54
2022/09/06 04:20:12;;;;;;;9.60;8.05;;;17.30;99.90;;;;;;4995419;28;20027;-54
2022/09/06 04:22:38;;;;;;;10.05;8.18;;;17.30;99.90;;;;;;4995148;28;20571;-54
2022/09/06 04:25:05;;;;;;;9.25;8.15;;;17.20;99.90;;;;;;4995056;28;20033;-54
2022/09/06 04:27:31;;;;;;;12.63;7.90;;;17.20;99.90;;;;;;4994988;28;20041;-54
2022/09/06 04:29:56;;;;;;;10.50;8.73;;;17.20;99.90;;;;;;4992136;28;20022;-55
2022/09/06 04:32:22;;;;;;;10.80;8.90;;;17.20;99.90;;;;;;4995194;28;20503;-53
2022/09/06 04:34:48;;;;;;;12.65;8.90;;;17.10;99.90;;;;;;4994883;28;20030;-53
2022/09/06 04:37:18;;;;;;;11.70;8.38;;;17.00;99.90;;;;;;4994884;28;20034;-53
2022/09/06 04:39:47;;;;;;;13.60;8.90;;;17.00;99.90;;;;;;4994907;28;20026;-53
2022/09/06 04:42:14;;;;;;;13.07;9.48;;;16.90;99.90;;;;;;4994841;28;20030;-53
2022/09/06 04:44:39;;;;;;;11.40;9.32;;;16.90;99.90;;;;;;4994631;28;20026;-53
2022/09/06 04:47:17;;;;;;;11.55;9.52;;;16.80;99.90;;;;;;4993593;28;20033;-53
2022/09/06 04:49:43;;;;;;;11.60;9.55;;;16.70;99.90;;;;;;4995353;28;20031;-53
2022/09/06 04:52:09;;;;;;;14.93;10.77;;;16.60;99.90;;;;;;4994977;28;20026;-53
2022/09/06 04:54:35;;;;;;;17.30;10.25;;;16.60;99.90;;;;;;4995211;28;20031;-53
2022/09/06 04:57:00;;;;;;;15.35;10.45;;;16.60;99.90;;;;;;4994710;28;20054;-53
2022/09/06 04:59:26;;;;;;;15.40;10.63;;;16.60;99.90;;;;;;4994052;28;20030;-54
2022/09/06 05:01:52;;;;;;;14.63;10.77;;;16.60;99.90;;;;;;4994885;28;20038;-52
2022/09/06 05:04:17;;;;;;;14.23;10.70;;;16.50;99.90;;;;;;4994336;28;20026;-54
2022/09/06 05:06:44;;;;;;;12.32;10.75;;;16.50;99.90;;;;;;4994174;28;20388;-53
2022/09/06 05:09:10;;;;;;;13.32;11.57;;;16.50;99.90;;;;;;4994828;28;20030;-53
2022/09/06 05:11:35;;;;;;;15.43;11.77;;;16.50;99.90;;;;;;4995460;28;20192;-54
2022/09/06 05:14:01;;;;;;;13.60;11.60;;;16.50;99.90;;;;;;4994355;28;20041;-54
2022/09/06 05:16:27;;;;;;;15.90;11.85;;;16.50;99.90;;;;;;4995422;28;20105;-53
2022/09/06 05:18:52;;;;;;;12.25;10.85;;;16.60;99.90;;;;;;4994257;28;20030;-54
2022/09/06 05:21:18;;;;;;;15.77;11.52;;;16.50;99.90;;;;;;4993774;28;20440;-53
2022/09/06 05:23:44;;;;;;;14.88;11.43;;;16.60;99.90;;;;;;4993629;28;20058;-53
2022/09/06 05:26:10;;;;;;;14.80;11.73;;;16.60;99.90;;;;;;4993817;28;20041;-53
2022/09/06 05:28:35;;;;;;;13.50;11.15;;;16.60;99.90;;;;;;4994186;28;20042;-54
2022/09/06 05:31:09;;;;;;;12.90;11.52;;;16.70;99.90;;;;;;4994379;28;20034;-53
2022/09/06 05:33:35;;;;;;;12.52;11.23;;;16.70;99.90;;;;;;4993268;28;20030;-53
2022/09/06 05:36:05;;;;;;;13.00;11.40;;;16.60;99.90;;;;;;4990715;28;20038;-53
2022/09/06 05:38:31;;;;;;;12.43;11.23;;;16.70;99.90;;;;;;4991906;28;20483;-53
2022/09/06 05:40:57;;;;;;;15.30;11.68;;;16.70;99.90;;;;;;4992762;28;20018;-53
2022/09/06 05:43:22;;;;;;;15.35;11.85;;;16.70;99.90;;;;;;4993388;28;20022;-54
2022/09/06 05:45:48;;;;;;;12.88;11.43;;;16.80;99.90;;;;;;4992503;28;20474;-52
2022/09/06 05:48:13;;;;;;;12.50;11.20;;;16.80;99.90;;;;;;4987933;28;20480;-52
2022/09/06 05:50:39;;;;;;;15.35;11.38;;;16.90;99.90;;;;;;4991544;28;20045;-52
2022/09/06 05:53:05;;;;;;;14.15;10.90;;;16.90;99.90;;;;;;4982909;28;20043;-52
2022/09/06 05:55:30;;;;;;;12.02;10.73;;;16.90;99.90;;;;;;4984872;28;20030;-52
2022/09/06 05:57:56;;;;;;;15.88;11.38;;;17.00;99.90;;;;;;4987762;28;20050;-54
2022/09/06 06:00:24;;;;;;;14.40;11.13;;;17.00;99.90;;;;;;4989307;28;20042;-54
2022/09/06 06:02:50;;;;;;;15.65;11.88;;;17.10;99.90;;;;;;4984281;28;20527;-54
2022/09/06 06:05:15;;;;;;;13.10;10.75;;;17.20;99.90;;;;;;4984651;28;20025;-53
2022/09/06 06:07:41;;;;;;;19.13;11.98;;;17.10;99.90;;;;;;4979918;28;20033;-51
2022/09/06 06:10:07;;;;;;;14.63;10.90;;;17.20;99.90;;;;;;4979546;28;20098;-51
2022/09/06 06:12:33;;;;;;;15.40;10.65;;;17.20;99.90;;;;;;4973148;28;20034;-53
2022/09/06 06:14:58;;;;;;;16.25;11.40;;;17.20;99.90;;;;;;4970877;28;20151;-54
2022/09/06 06:17:24;;;;;;;15.32;11.20;;;17.20;99.90;;;;;;4975264;28;20045;-52
2022/09/06 06:19:50;;;;;;;16.60;11.63;;;17.30;99.90;;;;;;4981679;28;20117;-52
2022/09/06 06:22:15;;;;;;;18.92;11.00;;;17.40;99.90;;;;;;4978823;28;20025;-52
2022/09/06 06:24:41;;;;;;;14.40;10.18;;;17.40;99.90;;;;;;4980326;28;20116;-52
2022/09/06 06:27:06;;;;;;;20.75;10.23;;;17.50;99.90;;;;;;4979003;28;20034;-52
2022/09/06 06:29:32;;;;;;;13.15;8.82;;;17.70;99.90;;;;;;4972460;28;20033;-52
2022/09/06 06:31:58;;;;;;;14.05;9.00;;;17.80;99.90;;;;;;4978767;28;20096;-53
2022/09/06 06:34:23;;;;;;;17.38;9.30;;;17.90;99.90;;;;;;4978050;28;20034;-53
2022/09/06 06:36:49;;;;;;;13.80;8.80;;;18.10;99.90;;;;;;4973011;28;20117;-52
2022/09/06 06:39:15;;;;;;;13.65;9.25;;;18.20;99.90;;;;;;4971905;28;20038;-52
2022/09/06 06:41:40;;;;;;;14.20;9.18;;;18.20;99.90;;;;;;4975491;28;20069;-53
2022/09/06 06:44:06;;;;;;;18.33;9.50;;;18.30;99.90;;;;;;4973980;28;20532;-53
2022/09/06 06:46:36;;;;;;;13.15;8.50;;;18.30;99.90;;;;;;4975022;28;20032;-52
2022/09/06 06:49:02;;;;;;;13.15;8.52;;;18.40;99.90;;;;;;4977182;28;20068;-52
2022/09/06 06:51:31;;;;;;;11.55;7.95;;;18.40;99.90;;;;;;4975083;28;20031;-53
2022/09/06 06:53:57;;;;;;;11.85;8.48;;;18.40;99.90;;;;;;4977213;28;20034;-53
2022/09/06 06:56:29;;;;;;;13.15;8.23;;;18.40;99.90;;;;;;4986059;28;20054;-53
2022/09/06 06:59:00;;;;;;;15.80;8.18;;;18.50;99.90;;;;;;4971610;28;20108;-53
2022/09/06 07:01:28;;;;;;;10.93;6.85;;;18.50;99.90;;;;;;4975421;28;20151;-53
2022/09/06 07:03:54;;;;;;;10.93;6.47;;;18.60;99.90;;;;;;4974642;28;20035;-53
2022/09/06 07:06:20;;;;;;;11.93;6.95;;;18.70;99.90;;;;;;4977909;28;20573;-53
2022/09/06 07:08:46;;;;;;;11.10;6.75;;;18.80;99.90;;;;;;4975466;28;20464;-53
2022/09/06 07:11:14;;;;;;;8.88;6.40;;;18.90;99.90;;;;;;4980038;28;20037;-53
2022/09/06 07:13:40;;;;;;;12.02;7.20;;;18.90;99.90;;;;;;4983353;28;20407;-53
2022/09/06 07:16:14;;;;;;;13.07;6.47;;;18.90;99.90;;;;;;4982577;28;20034;-53
2022/09/06 07:18:41;;;;;;;14.13;6.00;;;18.90;99.90;;;;;;4976214;28;20552;-53
2022/09/06 07:21:12;;;;;;;7.65;5.10;;;18.90;99.90;;;;;;4980702;28;20092;-53
2022/09/06 07:23:38;;;;;;;11.73;5.63;;;18.90;99.90;;;;;;4980987;28;20109;-54
2022/09/06 07:26:04;;;;;;;8.77;5.47;;;19.00;99.90;;;;;;4981585;28;20383;-52
2022/09/06 07:28:30;;;;;;;9.52;5.50;;;19.10;99.90;;;;;;4981484;28;20080;-52
2022/09/06 07:30:56;;;;;;;12.68;5.65;;;19.30;99.90;;;;;;4975908;28;20878;-54
2022/09/06 07:33:22;;;;;;;9.55;5.35;;;19.40;99.90;;;;;;4974150;28;20053;-54
2022/09/06 07:35:55;;;;;;;5.25;3.92;;;20.00;99.90;;;;;;4971898;28;20030;-48
2022/09/06 07:38:21;;;;;;;8.23;4.57;;;20.90;99.90;;;;;;4979664;28;20173;-49
2022/09/06 07:40:53;;;;;;;6.97;4.22;;;21.50;99.90;;;;;;4977843;28;20030;-49
2022/09/06 07:43:18;;;;;;;9.15;4.20;;;22.10;99.90;;;;;;4977517;28;20031;-49
2022/09/06 07:45:44;;;;;;;6.45;3.85;;;22.50;99.90;;;;;;4981887;28;20053;-49
2022/09/06 07:48:10;;;;;;;7.20;4.00;;;22.70;99.90;;;;;;4981013;28;20049;-49
2022/09/06 07:50:35;;;;;;;5.90;3.08;;;22.70;99.90;;;;;;4976441;28;20034;-50
2022/09/06 07:53:08;;;;;;;5.45;4.00;;;22.90;99.90;;;;;;4980547;28;20109;-49
2022/09/06 07:55:34;;;;;;;6.82;3.60;;;23.10;99.90;;;;;;4978225;28;20561;-49
2022/09/06 07:58:00;;;;;;;9.23;3.55;;;23.20;99.90;;;;;;4979018;28;20046;-48
2022/09/06 08:00:26;;;;;;;5.85;3.30;;;23.30;99.90;;;;;;4977829;28;20042;-49
2022/09/06 08:02:51;;;;;;;5.72;3.10;;;23.80;99.90;;;;;;4977748;28;20488;-49
2022/09/06 08:05:17;;;;;;;10.18;3.38;;;24.40;99.90;;;;;;4974032;28;20070;-49
2022/09/06 08:07:43;;;;;;;5.15;3.00;;;24.00;99.90;;;;;;4976513;28;20041;-48
2022/09/06 08:10:08;;;;;;;5.22;3.55;;;23.80;99.90;;;;;;4973692;28;20101;-48
2022/09/06 08:12:34;;;;;;;12.85;3.53;;;23.70;99.90;;;;;;4972372;28;20038;-49
2022/09/06 08:15:00;;;;;;;7.05;3.22;;;24.00;99.90;;;;;;4972405;28;20220;-49
2022/09/06 08:17:25;;;;;;;5.57;3.30;;;24.90;99.90;;;;;;4971240;28;20034;-50
2022/09/06 08:19:51;;;;;;;7.30;3.25;;;25.10;99.90;;;;;;4969551;28;20045;-50
2022/09/06 08:22:16;;;;;;;8.07;3.40;;;25.10;99.90;;;;;;4974007;28;20050;-50
2022/09/06 08:24:42;;;;;;;4.63;3.13;;;24.80;99.90;;;;;;4980874;28;20026;-51
2022/09/06 08:27:08;;;;;;;6.63;3.40;;;25.30;99.90;;;;;;4978431;28;20030;-51
2022/09/06 08:29:34;;;;;;;5.88;3.17;;;25.30;99.90;;;;;;4972560;28;20142;-50
2022/09/06 08:32:00;;;;;;;4.72;3.53;;;25.00;99.90;;;;;;4973480;28;20034;-50
2022/09/06 08:34:25;;;;;;;6.07;3.35;;;25.10;99.90;;;;;;4974724;28;20388;-50
2022/09/06 08:36:51;;;;;;;4.45;3.20;;;25.30;99.90;;;;;;4978726;28;20161;-48
2022/09/06 08:39:17;;;;;;;5.30;3.00;;;25.40;99.90;;;;;;4981755;28;20034;-49
2022/09/06 08:42:04;;;;;;;6.32;3.67;;;25.90;99.90;;;;;;4980650;28;20113;-52
2022/09/06 08:44:47;;;;;;;5.63;2.90;;;27.10;99.90;;;;;;4983391;28;20026;-49
2022/09/06 08:47:15;;;;;;;7.32;3.40;;;27.00;99.90;;;;;;4980076;28;20511;-49
2022/09/06 08:49:45;;;;;;;6.07;3.22;;;26.70;99.90;;;;;;4980272;28;20030;-49
2022/09/06 08:52:19;;;;;;;6.80;3.00;;;26.40;99.90;;;;;;4978586;28;20509;-49
2022/09/06 08:55:03;;;;;;;5.00;3.35;;;26.80;99.90;;;;;;4978208;28;20030;-50
2022/09/06 08:57:59;;;;;;;7.43;3.75;;;26.90;99.90;;;;;;4974537;28;20046;-50
2022/09/06 09:00:25;;;;;;;4.40;3.35;;;26.60;99.90;;;;;;4971704;28;20054;-50
2022/09/06 09:03:02;;;;;;;6.82;3.60;;;26.60;99.90;;;;;;4978647;28;20094;-50
2022/09/06 09:05:33;;;;;;;7.20;3.53;;;26.20;99.90;;;;;;4976105;28;20053;-50
2022/09/06 09:08:05;;;;;;;8.82;3.50;;;26.20;99.90;;;;;;4977771;28;20026;-50
2022/09/06 09:10:43;;;;;;;5.25;3.50;;;26.30;99.90;;;;;;4977137;28;20047;-49
2022/09/06 09:13:28;;;;;;;7.78;3.70;;;26.80;99.90;;;;;;4978664;28;20026;-51
2022/09/06 09:15:54;;;;;;;5.00;2.88;;;26.90;99.90;;;;;;4976798;28;20064;-51
2022/09/06 09:18:25;;;;;;;5.28;3.35;;;27.60;99.90;;;;;;4973930;28;20117;-52
2022/09/06 09:20:51;;;;;;;5.73;3.27;;;28.60;99.90;;;;;;4975825;28;20026;-52
2022/09/06 09:23:17;;;;;;;8.30;3.55;;;29.20;99.90;;;;;;4976216;28;20500;-52
2022/09/06 09:25:45;;;;;;;7.78;3.38;;;29.70;99.90;;;;;;4979384;28;20301;-52
2022/09/06 09:28:22;;;;;;;4.20;3.33;;;29.60;99.90;;;;;;4976466;28;20086;-51
2022/09/06 09:30:51;;;;;;;4.85;3.20;;;29.00;99.90;;;;;;4977814;28;20041;-52
2022/09/06 09:33:33;;;;;;;3.85;2.70;;;28.70;99.90;;;;;;4976902;28;20685;-51
2022/09/06 09:36:03;;;;;;;5.90;3.08;;;28.40;99.90;;;;;;4981051;28;20037;-51
2022/09/06 09:38:35;;;;;;;4.65;2.88;;;28.40;99.90;;;;;;4980141;28;20036;-52
2022/09/06 09:41:03;;;;;;;5.25;3.00;;;28.20;99.90;;;;;;4979483;28;20077;-51
2022/09/06 09:43:53;;;;;;;4.93;2.92;;;28.30;99.90;;;;;;4976820;28;20053;-51
2022/09/06 09:46:21;;;;;;;5.50;2.65;;;28.70;99.90;;;;;;4970658;28;20049;-51
2022/09/06 09:49:12;;;;;;;4.93;2.22;;;28.20;99.90;;;;;;4976600;28;20034;-51
2022/09/06 09:51:46;;;;;;;4.50;2.42;;;28.50;99.90;;;;;;4972669;28;20120;-51
2022/09/06 09:54:14;;;;;;;4.18;2.20;;;29.00;99.90;;;;;;4975684;28;20045;-51
2022/09/06 09:56:52;;;;;;;3.28;1.73;;;29.20;99.90;;;;;;4974786;28;20334;-52
2022/09/06 09:59:36;;;;;;;3.25;2.00;;;29.60;99.90;;;;;;4970201;28;20440;-52
2022/09/06 10:02:22;;;;;;;5.75;2.05;;;29.20;99.90;;;;;;4972859;28;20113;-52
2022/09/06 10:04:50;;;;;;;2.60;2.13;;;29.00;99.90;;;;;;4976713;28;20515;-52
2022/09/06 10:07:25;;;;;;;7.78;2.53;;;28.90;99.90;;;;;;4976544;28;20026;-52
2022/09/06 10:10:01;;;;;;;6.97;2.33;;;29.60;99.90;;;;;;4973817;28;20124;-50
2022/09/06 10:12:38;;;;;;;5.75;2.15;;;30.60;99.90;;;;;;4971278;28;20034;-50
2022/09/06 10:15:25;;;;;;;4.18;1.90;;;30.40;99.90;;;;;;4973839;28;20026;-50
2022/09/06 10:17:51;;;;;;;3.33;1.77;;;30.10;99.90;;;;;;4958155;28;20050;-50
2022/09/06 10:20:17;;;;;;;4.82;1.90;;;28.80;99.90;;;;;;4964721;28;20049;-50
2022/09/06 10:22:52;;;;;;;6.18;1.85;;;28.60;99.90;;;;;;4969786;28;20026;-51
2022/09/06 10:25:38;;;;;;;4.22;1.70;;;28.90;99.90;;;;;;4972073;28;20662;-52
2022/09/06 10:28:07;;;;;;;5.07;1.45;;;29.50;99.90;;;;;;4971682;28;20720;-52
2022/09/06 10:30:40;;;;;;;4.38;1.50;;;29.40;99.90;;;;;;4970096;28;20027;-52
2022/09/06 10:33:18;;;;;;;5.50;1.70;;;29.50;99.70;;;;;;4974444;28;20168;-53
2022/09/06 10:35:44;;;;;;;5.78;1.48;;;29.50;98.50;;;;;;4979545;28;20216;-53
2022/09/06 10:38:34;;;;;;;3.83;1.50;;;29.40;98.60;;;;;;4977275;28;20022;-52
2022/09/06 10:41:37;;;;;;;7.15;1.70;;;30.20;97.10;;;;;;4978477;28;21000;-52
2022/09/06 10:44:14;;;;;;;2.30;1.10;;;30.40;96.40;;;;;;4978092;28;20467;-51
2022/09/06 10:46:43;;;;;;;3.50;1.30;;;29.40;96.40;;;;;;4974786;28;20038;-52
2022/09/06 10:49:20;;;;;;;3.42;1.33;;;28.90;98.10;;;;;;4976680;28;20038;-52
2022/09/06 10:51:51;;;;;;;3.97;1.50;;;29.70;97.80;;;;;;4976019;28;20042;-52
2022/09/06 10:54:22;;;;;;;3.53;1.33;;;30.20;95.60;;;;;;4979286;28;20042;-52
2022/09/06 10:57:12;;;;;;;6.60;1.52;;;30.20;96.00;;;;;;4977892;28;20081;-52
2022/09/06 10:59:52;;;;;;;3.15;1.42;;;30.50;96.10;;;;;;4975236;28;20050;-52
2022/09/06 11:02:46;;;;;;;5.55;1.45;;;31.30;94.20;;;;;;4976185;28;20791;-53
2022/09/06 11:09:24;;;;;;;6.30;1.63;;;31.70;93.30;;;;;;4958187;28;20072;-52
2022/09/06 11:11:53;;;;;;;;;;;31.70;93.20;;;;;;4970643;28;20511;-51
2022/09/06 11:14:22;;;;;;;3.13;1.30;;;31.70;92.90;;;;;;4969496;28;20730;-50
2022/09/06 11:16:56;;;;;;;6.97;1.40;;;31.70;90.50;;;;;;4969382;28;20035;-52
2022/09/06 11:19:32;;;;;;;3.85;1.33;;;31.30;92.30;;;;;;4973267;28;20030;-53
2022/09/06 11:22:24;;;;;;;4.55;1.25;;;31.20;91.80;;;;;;4979255;28;20448;-53
2022/09/06 11:25:17;;;;;;;2.88;1.27;;;31.10;92.10;;;;;;4976030;28;20607;-52
2022/09/06 11:27:49;;;;;;;4.43;1.42;;;30.90;93.00;;;;;;4979975;28;20029;-58
2022/09/06 11:30:16;;;;;;;;;;;31.40;91.80;;;;;;4977443;28;21410;-59
2022/09/06 11:32:48;;;;;;;2.53;1.38;;;31.50;92.00;;;;;;4973170;28;19943;-50
2022/09/06 11:35:29;;;;;;;4.60;1.50;;;31.50;92.20;;;;;;4978709;28;20038;-54
2022/09/06 11:38:06;;;;;;;3.17;1.20;;;32.00;91.10;;;;;;4972693;28;20403;-50
2022/09/06 11:40:40;;;;;;;3.40;1.27;;;31.60;90.10;;;;;;4976830;28;20760;-50
2022/09/06 11:43:48;;;;;;;2.70;1.15;;;31.70;90.80;;;;;;4972624;28;20110;-50
2022/09/06 11:46:32;;;;;;;3.13;1.45;;;31.20;90.90;;;;;;4973570;28;20041;-50
2022/09/06 11:49:09;;;;;;;3.92;1.30;;;30.60;91.30;;;;;;4967664;28;20620;-50
2022/09/06 11:51:42;;;;;;;2.13;1.20;;;31.10;90.90;;;;;;4963397;28;20042;-51
2022/09/06 11:54:11;;;;;;;2.40;1.30;;;32.00;88.80;;;;;;4968587;28;20096;-51
2022/09/06 11:57:19;;;;;;;5.07;1.45;;;32.00;89.90;;;;;;4964683;28;20178;-51
2022/09/06 11:59:45;;;;;;;5.53;1.20;;;32.10;89.50;;;;;;4968153;28;20438;-52
2022/09/06 12:02:30;;;;;;;4.32;1.58;;;33.00;83.70;;;;;;4971048;28;20038;-52
2022/09/06 12:05:18;;;;;;;3.45;1.40;;;31.80;85.70;;;;;;4966660;28;20027;-51
2022/09/06 12:08:14;;;;;;;4.82;1.10;;;31.50;86.70;;;;;;4962118;28;20436;-51
2022/09/06 12:10:40;;;;;;;3.40;1.55;;;31.90;86.30;;;;;;4977548;28;20297;-51
2022/09/06 12:13:43;;;;;;;3.15;1.40;;;31.90;84.60;;;;;;4973606;28;21046;-51
2022/09/06 12:16:11;;;;;;;3.58;1.30;;;32.00;85.00;;;;;;4965709;28;20194;-50
2022/09/06 12:18:45;;;;;;;3.45;1.40;;;32.10;84.50;;;;;;4970347;28;20030;-50
2022/09/06 12:21:34;;;;;;;3.80;1.33;;;31.90;83.90;;;;;;4974214;28;20031;-50
2022/09/06 12:24:00;;;;;;;2.92;1.63;;;32.10;82.40;;;;;;4969665;28;20030;-50
2022/09/06 12:27:15;;;;;;;4.47;1.40;;;32.20;82.70;;;;;;4969346;28;20089;-50
2022/09/06 12:30:10;;;;;;;5.55;1.70;;;32.50;82.80;;;;;;4969339;28;20078;-51
2022/09/06 12:32:50;;;;;;;3.10;1.35;;;33.90;79.80;;;;;;4972067;28;20046;-51
2022/09/06 12:35:25;;;;;;;6.75;1.70;;;34.80;77.70;;;;;;4973507;28;20046;-51
2022/09/06 12:38:05;;;;;;;2.80;1.30;;;35.20;77.20;;;;;;4974530;28;20561;-51
2022/09/06 12:40:44;;;;;;;4.20;1.60;;;34.60;76.60;;;;;;4971908;28;20064;-51
2022/09/06 12:43:12;;;;;;;5.55;1.75;;;34.20;76.60;;;;;;4974172;28;20038;-51
2022/09/06 12:45:50;;;;;;;2.05;1.45;;;33.60;76.30;;;;;;4973559;28;20407;-51
2022/09/06 12:48:27;;;;;;;5.22;1.50;;;33.80;75.30;;;;;;4971640;28;20510;-50
2022/09/06 12:51:03;;;;;;;3.58;1.42;;;32.70;77.00;;;;;;4973106;28;20447;-50
2022/09/06 12:53:30;;;;;;;2.78;1.50;;;31.80;78.50;;;;;;4972073;28;20483;-50
2022/09/06 12:56:13;;;;;;;16.77;1.90;;;31.20;81.80;;;;;;4968677;28;20052;-50
2022/09/06 12:58:39;;;;;;;4.05;1.15;;;32.10;82.00;;;;;;4965259;28;20120;-50
2022/09/06 13:01:37;;;;;;;3.45;0.93;;;32.70;77.60;;;;;;4973205;28;20583;-50
2022/09/06 13:04:27;;;;;;;2.55;1.10;;;33.40;73.90;;;;;;4944579;28;20757;-50
2022/09/06 13:06:54;;;;;;;4.75;1.10;;;33.00;74.80;;;;;;4971200;28;20029;-50
2022/09/06 13:09:21;;;;;;;2.60;1.15;;;32.90;74.70;;;;;;4966651;28;20080;-50